createdAt,value
2022-10-14T00:00:02.750Z,11.50
2022-10-14T00:01:02.976Z,11.50
2022-10-14T00:02:02.998Z,11.50
2022-10-14T00:03:02.920Z,11.50
2022-10-14T00:04:02.950Z,11.50
2022-10-14T00:05:03.027Z,11.50
2022-10-14T00:06:03.035Z,11.50
2022-10-14T00:07:02.989Z,11.50
2022-10-14T00:08:03.048Z,11.50
2022-10-14T00:09:02.932Z,11.50
2022-10-14T00:10:08.571Z,11.50
2022-10-14T00:11:03.306Z,11.50
2022-10-14T00:12:08.236Z,11.50
2022-10-14T00:13:08.276Z,11.50
2022-10-14T00:14:03.223Z,11.50
2022-10-14T00:15:08.305Z,11.40
2022-10-14T00:16:03.211Z,11.40
2022-10-14T00:17:03.340Z,11.40
2022-10-14T00:18:03.297Z,11.40
2022-10-14T00:20:03.321Z,11.40
2022-10-14T00:21:03.386Z,11.40
2022-10-14T00:22:03.462Z,11.40
2022-10-14T00:23:08.601Z,11.40
2022-10-14T00:24:03.492Z,11.40
2022-10-14T00:25:02.736Z,11.40
2022-10-14T00:26:02.844Z,11.40
2022-10-14T00:27:02.752Z,11.40
2022-10-14T00:28:07.709Z,11.40
2022-10-14T00:29:02.822Z,11.40
2022-10-14T00:30:02.830Z,11.40
2022-10-14T00:31:02.827Z,11.40
2022-10-14T00:32:02.799Z,11.40
2022-10-14T00:33:03.251Z,11.40
2022-10-14T00:34:03.210Z,11.40
2022-10-14T00:35:03.217Z,11.40
2022-10-14T00:36:03.183Z,11.40
2022-10-14T00:37:03.358Z,11.40
2022-10-14T00:38:07.869Z,11.40
2022-10-14T00:39:02.814Z,11.40
2022-10-14T00:40:08.370Z,11.40
2022-10-14T00:41:03.309Z,11.40
2022-10-14T00:42:02.941Z,11.40
2022-10-14T00:43:03.085Z,11.40
2022-10-14T00:44:08.139Z,11.40
2022-10-14T00:45:03.040Z,11.30
2022-10-14T00:46:02.992Z,11.30
2022-10-14T00:47:02.892Z,11.30
2022-10-14T00:48:02.907Z,11.30
2022-10-14T00:49:07.870Z,11.30
2022-10-14T00:50:02.833Z,11.30
2022-10-14T00:51:02.890Z,11.30
2022-10-14T00:52:08.195Z,11.30
2022-10-14T00:53:03.099Z,11.30
2022-10-14T00:54:03.067Z,11.30
2022-10-14T00:55:08.216Z,11.30
2022-10-14T00:56:03.258Z,11.30
2022-10-14T00:57:03.292Z,11.30
2022-10-14T00:58:03.229Z,11.30
2022-10-14T00:59:03.383Z,11.30
2022-10-14T01:00:03.393Z,11.30
2022-10-14T01:01:03.433Z,11.20
2022-10-14T01:02:03.482Z,11.30
2022-10-14T01:03:03.559Z,11.30
2022-10-14T01:04:02.625Z,11.20
2022-10-14T01:05:02.716Z,11.20
2022-10-14T01:06:02.808Z,11.30
2022-10-14T01:07:02.742Z,11.20
2022-10-14T01:08:02.689Z,11.20
2022-10-14T01:09:02.781Z,11.20
2022-10-14T01:10:02.718Z,11.20
2022-10-14T01:11:02.713Z,11.20
2022-10-14T01:12:23.814Z,11.20
2022-10-14T01:13:02.757Z,11.20
2022-10-14T01:14:02.811Z,11.20
2022-10-14T01:15:02.952Z,11.20
2022-10-14T01:16:02.866Z,11.20
2022-10-14T01:17:02.975Z,11.30
2022-10-14T01:18:02.925Z,11.20
2022-10-14T01:19:08.010Z,11.30
2022-10-14T01:20:02.941Z,11.30
2022-10-14T01:21:03.015Z,11.30
2022-10-14T01:22:03.028Z,11.30
2022-10-14T01:23:08.087Z,11.30
2022-10-14T01:24:02.937Z,11.30
2022-10-14T01:25:08.051Z,11.30
2022-10-14T01:26:02.923Z,11.30
2022-10-14T01:27:02.845Z,11.30
2022-10-14T01:28:02.867Z,11.30
2022-10-14T01:29:02.963Z,11.30
2022-10-14T01:30:02.930Z,11.30
2022-10-14T01:31:03.051Z,11.30
2022-10-14T01:32:03.056Z,11.30
2022-10-14T01:33:02.620Z,11.30
2022-10-14T01:34:03.144Z,11.30
2022-10-14T01:35:03.217Z,11.30
2022-10-14T01:36:08.310Z,11.30
2022-10-14T01:37:03.281Z,11.30
2022-10-14T01:38:03.190Z,11.30
2022-10-14T01:39:03.198Z,11.30
2022-10-14T01:40:03.285Z,11.30
2022-10-14T01:41:03.239Z,11.30
2022-10-14T01:42:03.375Z,11.30
2022-10-14T01:43:03.320Z,11.30
2022-10-14T01:44:03.379Z,11.30
2022-10-14T01:45:03.505Z,11.30
2022-10-14T01:46:03.422Z,11.30
2022-10-14T01:47:03.528Z,11.30
2022-10-14T01:48:03.530Z,11.30
2022-10-14T01:49:03.558Z,11.40
2022-10-14T01:50:03.616Z,11.40
2022-10-14T01:51:02.662Z,11.30
2022-10-14T01:52:02.612Z,11.30
2022-10-14T01:53:02.733Z,11.30
2022-10-14T01:54:02.898Z,11.40
2022-10-14T01:55:02.930Z,11.30
2022-10-14T01:56:02.964Z,11.40
2022-10-14T01:57:03.043Z,11.40
2022-10-14T01:58:02.977Z,11.40
2022-10-14T01:59:03.031Z,11.40
2022-10-14T02:00:03.084Z,11.40
2022-10-14T02:01:03.221Z,11.40
2022-10-14T02:02:03.341Z,11.40
2022-10-14T02:03:03.321Z,11.40
2022-10-14T02:04:03.395Z,11.40
2022-10-14T02:07:02.665Z,11.40
2022-10-14T02:08:03.586Z,11.40
2022-10-14T02:09:02.729Z,11.40
2022-10-14T02:10:02.787Z,11.40
2022-10-14T02:11:02.744Z,11.40
2022-10-14T02:12:02.851Z,11.40
2022-10-14T02:13:02.765Z,11.40
2022-10-14T02:14:02.880Z,11.40
2022-10-14T02:15:02.834Z,11.40
2022-10-14T02:16:02.935Z,11.40
2022-10-14T02:17:03.079Z,11.40
2022-10-14T02:18:03.085Z,11.50
2022-10-14T02:19:03.031Z,11.50
2022-10-14T02:20:03.080Z,11.50
2022-10-14T02:21:03.195Z,11.50
2022-10-14T02:22:03.134Z,11.50
2022-10-14T02:23:03.218Z,11.50
2022-10-14T02:24:03.158Z,11.50
2022-10-14T02:25:03.269Z,11.50
2022-10-14T02:26:03.325Z,11.50
2022-10-14T02:27:03.302Z,11.50
2022-10-14T02:28:03.362Z,11.50
2022-10-14T02:29:03.468Z,11.50
2022-10-14T02:31:03.518Z,11.50
2022-10-14T02:32:08.652Z,11.50
2022-10-14T02:33:03.514Z,11.50
2022-10-14T02:34:03.600Z,11.50
2022-10-14T02:35:03.546Z,11.50
2022-10-14T02:36:03.577Z,11.50
2022-10-14T02:37:02.738Z,11.50
2022-10-14T02:38:02.694Z,11.50
2022-10-14T02:39:02.730Z,11.50
2022-10-14T02:40:02.778Z,11.50
2022-10-14T02:41:02.808Z,11.50
2022-10-14T02:42:02.792Z,11.60
2022-10-14T02:43:02.804Z,11.50
2022-10-14T02:44:02.766Z,11.50
2022-10-14T02:45:02.800Z,11.50
2022-10-14T02:46:02.869Z,11.60
2022-10-14T02:47:02.867Z,11.60
2022-10-14T02:48:02.901Z,11.60
2022-10-14T02:49:02.877Z,11.60
2022-10-14T02:50:02.871Z,11.60
2022-10-14T02:51:03.374Z,11.60
2022-10-14T02:52:03.590Z,11.60
2022-10-14T02:53:08.563Z,11.60
2022-10-14T02:54:02.930Z,11.60
2022-10-14T02:55:07.995Z,11.60
2022-10-14T02:56:07.938Z,11.60
2022-10-14T02:57:02.904Z,11.60
2022-10-14T02:58:02.904Z,11.60
2022-10-14T02:59:03.025Z,11.60
2022-10-14T03:00:03.011Z,11.60
2022-10-14T03:01:03.066Z,11.60
2022-10-14T03:02:03.252Z,11.60
2022-10-14T03:03:03.159Z,11.60
2022-10-14T03:04:03.243Z,11.60
2022-10-14T03:05:03.349Z,11.60
2022-10-14T03:06:03.309Z,11.60
2022-10-14T03:07:03.308Z,11.70
2022-10-14T03:08:03.316Z,11.70
2022-10-14T03:09:03.336Z,11.70
2022-10-14T03:10:03.357Z,11.70
2022-10-14T03:11:03.435Z,11.70
2022-10-14T03:12:03.508Z,11.70
2022-10-14T03:13:03.573Z,11.70
2022-10-14T03:14:08.606Z,11.70
2022-10-14T03:15:03.549Z,11.70
2022-10-14T03:16:03.515Z,11.70
2022-10-14T03:17:02.720Z,11.70
2022-10-14T03:18:02.623Z,11.70
2022-10-14T03:19:02.649Z,11.70
2022-10-14T03:20:02.666Z,11.70
2022-10-14T03:22:02.627Z,11.70
2022-10-14T03:23:02.651Z,11.70
2022-10-14T03:24:02.688Z,11.70
2022-10-14T03:25:02.788Z,11.80
2022-10-14T03:26:02.835Z,11.80
2022-10-14T03:27:02.936Z,11.80
2022-10-14T03:28:07.891Z,11.80
2022-10-14T03:29:02.949Z,11.80
2022-10-14T03:30:02.992Z,11.80
2022-10-14T03:31:02.971Z,11.80
2022-10-14T03:32:08.079Z,11.80
2022-10-14T03:33:03.158Z,11.80
2022-10-14T03:34:03.178Z,11.80
2022-10-14T03:35:03.123Z,11.80
2022-10-14T03:36:03.125Z,11.80
2022-10-14T03:37:03.171Z,11.80
2022-10-14T03:38:08.119Z,11.80
2022-10-14T03:39:03.111Z,11.80
2022-10-14T03:40:03.225Z,11.90
2022-10-14T03:41:03.258Z,11.90
2022-10-14T03:42:03.246Z,11.90
2022-10-14T03:43:08.396Z,11.90
2022-10-14T03:44:03.413Z,11.90
2022-10-14T03:45:03.431Z,11.90
2022-10-14T03:46:03.463Z,11.90
2022-10-14T03:47:03.436Z,11.90
2022-10-14T03:48:03.442Z,11.90
2022-10-14T03:49:03.393Z,11.90
2022-10-14T03:50:03.466Z,11.90
2022-10-14T03:51:03.397Z,11.90
2022-10-14T03:52:03.469Z,11.90
2022-10-14T03:53:03.490Z,11.90
2022-10-14T03:54:03.530Z,11.90
2022-10-14T03:55:08.536Z,11.90
2022-10-14T03:56:03.525Z,11.90
2022-10-14T03:57:02.682Z,12.00
2022-10-14T03:58:02.572Z,12.00
2022-10-14T03:59:02.637Z,12.00
2022-10-14T04:00:02.659Z,12.00
2022-10-14T04:01:02.738Z,12.00
2022-10-14T04:02:02.807Z,12.00
2022-10-14T04:03:02.771Z,12.00
2022-10-14T04:04:02.790Z,12.00
2022-10-14T04:05:02.848Z,12.00
2022-10-14T04:06:02.846Z,12.00
2022-10-14T04:07:07.942Z,12.00
2022-10-14T04:08:02.854Z,12.00
2022-10-14T04:09:02.931Z,12.00
2022-10-14T04:10:02.941Z,12.00
2022-10-14T04:11:02.915Z,12.00
2022-10-14T04:12:02.951Z,12.00
2022-10-14T04:13:08.017Z,12.00
2022-10-14T04:14:02.901Z,12.00
2022-10-14T04:15:02.946Z,12.00
2022-10-14T04:16:03.015Z,12.00
2022-10-14T04:17:03.064Z,12.00
2022-10-14T04:18:03.107Z,12.00
2022-10-14T04:19:03.502Z,12.00
2022-10-14T04:20:03.201Z,12.00
2022-10-14T04:21:03.337Z,12.00
2022-10-14T04:22:03.477Z,12.10
2022-10-14T04:23:08.635Z,12.00
2022-10-14T04:24:07.454Z,12.10
2022-10-14T04:25:03.798Z,12.10
2022-10-14T04:26:02.849Z,12.10
2022-10-14T04:27:02.893Z,12.10
2022-10-14T04:28:02.905Z,12.10
2022-10-14T04:29:02.942Z,12.10
2022-10-14T04:30:02.842Z,12.10
2022-10-14T04:31:02.959Z,12.10
2022-10-14T04:32:02.896Z,12.10
2022-10-14T04:33:02.915Z,12.10
2022-10-14T04:34:02.835Z,12.10
2022-10-14T04:35:02.906Z,12.10
2022-10-14T04:36:02.970Z,12.10
2022-10-14T04:37:03.013Z,12.10
2022-10-14T04:38:08.039Z,12.10
2022-10-14T04:39:07.972Z,12.10
2022-10-14T04:40:03.054Z,12.10
2022-10-14T04:41:03.073Z,12.10
2022-10-14T04:42:03.066Z,12.10
2022-10-14T04:43:08.232Z,12.10
2022-10-14T04:44:03.112Z,12.10
2022-10-14T04:45:03.179Z,12.10
2022-10-14T04:46:03.184Z,12.10
2022-10-14T04:47:08.288Z,12.10
2022-10-14T04:48:03.247Z,12.10
2022-10-14T04:49:03.282Z,12.10
2022-10-14T04:50:03.359Z,12.10
2022-10-14T04:51:04.681Z,12.10
2022-10-14T04:52:03.496Z,12.10
2022-10-14T04:53:03.511Z,12.10
2022-10-14T04:54:03.564Z,12.10
2022-10-14T04:55:03.595Z,12.20
2022-10-14T04:56:02.871Z,12.10
2022-10-14T04:57:02.923Z,12.20
2022-10-14T04:58:03.049Z,12.20
2022-10-14T04:59:03.105Z,12.20
2022-10-14T05:00:03.211Z,12.20
2022-10-14T05:01:03.224Z,12.20
2022-10-14T05:02:08.310Z,12.20
2022-10-14T05:03:03.350Z,12.20
2022-10-14T05:04:03.454Z,12.20
2022-10-14T05:05:03.539Z,12.20
2022-10-14T05:06:03.533Z,12.20
2022-10-14T05:07:03.632Z,12.20
2022-10-14T05:08:08.671Z,12.20
2022-10-14T05:09:02.605Z,12.20
2022-10-14T05:10:02.666Z,12.20
2022-10-14T05:11:02.717Z,12.20
2022-10-14T05:12:02.791Z,12.20
2022-10-14T05:13:02.768Z,12.20
2022-10-14T05:14:02.819Z,12.20
2022-10-14T05:15:02.881Z,12.20
2022-10-14T05:16:02.886Z,12.20
2022-10-14T05:17:02.887Z,12.20
2022-10-14T05:18:02.802Z,12.20
2022-10-14T05:19:02.901Z,12.20
2022-10-14T05:20:02.853Z,12.20
2022-10-14T05:21:07.932Z,12.20
2022-10-14T05:22:07.951Z,12.20
2022-10-14T05:23:02.969Z,12.20
2022-10-14T05:24:08.102Z,12.20
2022-10-14T05:25:08.072Z,12.20
2022-10-14T05:26:03.129Z,12.20
2022-10-14T05:27:03.114Z,12.20
2022-10-14T05:28:03.224Z,12.20
2022-10-14T05:29:03.146Z,12.20
2022-10-14T05:30:03.189Z,12.20
2022-10-14T05:31:03.079Z,12.20
2022-10-14T05:32:03.088Z,12.20
2022-10-14T05:33:03.233Z,12.20
2022-10-14T05:34:03.368Z,12.20
2022-10-14T05:35:03.452Z,12.20
2022-10-14T05:36:03.592Z,12.20
2022-10-14T05:37:03.469Z,12.20
2022-10-14T05:38:04.304Z,12.20
2022-10-14T05:39:03.557Z,12.20
2022-10-14T05:40:02.955Z,12.20
2022-10-14T05:41:03.088Z,12.20
2022-10-14T05:42:03.050Z,12.20
2022-10-14T05:43:03.123Z,12.20
2022-10-14T05:44:03.210Z,12.20
2022-10-14T05:45:03.258Z,12.20
2022-10-14T05:46:03.413Z,12.20
2022-10-14T05:47:03.467Z,12.20
2022-10-14T05:48:02.692Z,12.20
2022-10-14T05:49:07.779Z,12.20
2022-10-14T05:50:02.743Z,12.20
2022-10-14T05:51:07.837Z,12.20
2022-10-14T05:52:02.737Z,12.20
2022-10-14T05:53:02.743Z,12.20
2022-10-14T05:54:02.896Z,12.20
2022-10-14T05:55:02.904Z,12.20
2022-10-14T05:56:02.858Z,12.20
2022-10-14T05:57:02.841Z,12.20
2022-10-14T05:58:02.911Z,12.20
2022-10-14T05:59:07.977Z,12.20
2022-10-14T06:00:03.038Z,12.20
2022-10-14T06:01:02.933Z,12.20
2022-10-14T06:02:02.946Z,12.20
2022-10-14T06:03:02.928Z,12.20
2022-10-14T06:04:03.554Z,12.20
2022-10-14T06:05:02.851Z,12.20
2022-10-14T06:06:02.930Z,12.20
2022-10-14T06:07:08.062Z,12.20
2022-10-14T06:08:02.947Z,12.20
2022-10-14T06:10:02.965Z,12.20
2022-10-14T06:11:02.964Z,12.20
2022-10-14T06:12:02.889Z,12.20
2022-10-14T06:13:07.975Z,12.20
2022-10-14T06:14:02.850Z,12.20
2022-10-14T06:15:07.891Z,12.20
2022-10-14T06:16:03.031Z,12.20
2022-10-14T06:17:03.151Z,12.20
2022-10-14T06:18:03.059Z,12.30
2022-10-14T06:19:03.083Z,12.30
2022-10-14T06:20:03.180Z,12.30
2022-10-14T06:21:03.619Z,12.30
2022-10-14T06:22:02.682Z,12.30
2022-10-14T06:23:02.688Z,12.30
2022-10-14T06:24:02.731Z,12.30
2022-10-14T06:25:07.726Z,12.30
2022-10-14T06:26:02.824Z,12.30
2022-10-14T06:27:02.875Z,12.30
2022-10-14T06:28:03.041Z,12.30
2022-10-14T06:29:03.059Z,12.30
2022-10-14T06:30:03.012Z,12.30
2022-10-14T06:31:03.081Z,12.30
2022-10-14T06:32:03.025Z,12.30
2022-10-14T06:33:02.997Z,12.30
2022-10-14T06:34:03.026Z,12.30
2022-10-14T06:35:03.123Z,12.30
2022-10-14T06:36:03.282Z,12.30
2022-10-14T06:37:03.299Z,12.30
2022-10-14T06:38:03.409Z,12.30
2022-10-14T06:39:03.415Z,12.30
2022-10-14T06:40:03.345Z,12.30
2022-10-14T06:41:03.473Z,12.30
2022-10-14T06:42:12.183Z,12.30
2022-10-14T06:43:02.780Z,12.30
2022-10-14T06:44:02.765Z,12.30
2022-10-14T06:45:07.876Z,12.30
2022-10-14T06:46:02.935Z,12.30
2022-10-14T06:47:02.964Z,12.30
2022-10-14T06:48:02.996Z,12.30
2022-10-14T06:49:03.060Z,12.30
2022-10-14T06:50:03.100Z,12.30
2022-10-14T06:51:03.190Z,12.30
2022-10-14T06:52:03.200Z,12.30
2022-10-14T06:53:03.259Z,12.30
2022-10-14T06:54:03.256Z,12.30
2022-10-14T06:55:08.353Z,12.30
2022-10-14T06:56:03.367Z,12.30
2022-10-14T06:57:03.456Z,12.30
2022-10-14T06:58:03.524Z,12.40
2022-10-14T06:59:03.603Z,12.30
2022-10-14T07:00:02.787Z,12.30
2022-10-14T07:01:02.989Z,12.30
2022-10-14T07:02:03.051Z,12.30
2022-10-14T07:03:02.847Z,12.30
2022-10-14T07:04:02.989Z,12.30
2022-10-14T07:05:03.024Z,12.30
2022-10-14T07:06:02.956Z,12.30
2022-10-14T07:07:03.000Z,12.30
2022-10-14T07:08:03.097Z,12.30
2022-10-14T07:09:03.124Z,12.40
2022-10-14T07:10:03.147Z,12.40
2022-10-14T07:11:03.218Z,12.40
2022-10-14T07:12:03.583Z,12.40
2022-10-14T07:13:03.622Z,12.40
2022-10-14T07:14:08.631Z,12.40
2022-10-14T07:15:02.644Z,12.50
2022-10-14T07:16:02.757Z,12.50
2022-10-14T07:17:02.828Z,12.50
2022-10-14T07:18:02.865Z,12.60
2022-10-14T07:19:02.873Z,12.60
2022-10-14T07:20:02.871Z,12.60
2022-10-14T07:21:03.021Z,12.60
2022-10-14T07:22:02.906Z,12.70
2022-10-14T07:23:02.891Z,12.70
2022-10-14T07:24:03.015Z,12.70
2022-10-14T07:25:02.972Z,12.80
2022-10-14T07:26:03.058Z,12.80
2022-10-14T07:28:03.137Z,12.90
2022-10-14T07:29:03.163Z,12.90
2022-10-14T07:30:03.090Z,12.90
2022-10-14T07:31:03.098Z,13.00
2022-10-14T07:32:03.138Z,13.00
2022-10-14T07:33:03.274Z,13.00
2022-10-14T07:34:03.288Z,13.00
2022-10-14T07:36:03.377Z,13.10
2022-10-14T07:37:03.303Z,13.10
2022-10-14T07:38:03.385Z,13.10
2022-10-14T07:39:03.342Z,13.10
2022-10-14T07:40:08.461Z,13.20
2022-10-14T07:41:03.378Z,13.20
2022-10-14T07:42:03.358Z,13.20
2022-10-14T07:43:03.338Z,13.20
2022-10-14T07:44:03.296Z,13.20
2022-10-14T07:45:03.439Z,13.30
2022-10-14T07:46:03.537Z,13.30
2022-10-14T07:47:03.612Z,13.30
2022-10-14T07:48:02.702Z,13.40
2022-10-14T07:49:07.647Z,13.40
2022-10-14T07:50:03.571Z,13.40
2022-10-14T07:51:03.598Z,13.40
2022-10-14T07:53:02.727Z,13.50
2022-10-14T07:54:02.838Z,13.50
2022-10-14T07:55:07.865Z,13.50
2022-10-14T07:56:07.856Z,13.50
2022-10-14T07:57:02.818Z,13.60
2022-10-14T07:58:07.913Z,13.60
2022-10-14T07:59:02.858Z,13.60
2022-10-14T08:00:02.932Z,13.60
2022-10-14T08:01:02.952Z,13.70
2022-10-14T08:02:02.992Z,13.70
2022-10-14T08:03:08.112Z,13.70
2022-10-14T08:04:03.133Z,13.70
2022-10-14T08:05:19.311Z,13.80
2022-10-14T08:06:03.235Z,13.80
2022-10-14T08:07:03.250Z,13.80
2022-10-14T08:08:03.262Z,13.80
2022-10-14T08:09:08.396Z,13.90
2022-10-14T08:10:03.552Z,13.90
2022-10-14T08:11:03.480Z,13.90
2022-10-14T08:12:08.547Z,13.90
2022-10-14T08:13:03.565Z,14.00
2022-10-14T08:14:03.572Z,14.00
2022-10-14T08:15:03.507Z,14.00
2022-10-14T08:16:03.488Z,14.00
2022-10-14T08:17:03.605Z,14.10
2022-10-14T08:18:03.530Z,14.10
2022-10-14T08:19:03.548Z,14.10
2022-10-14T08:20:08.707Z,14.10
2022-10-14T08:21:08.626Z,14.10
2022-10-14T08:22:02.660Z,14.20
2022-10-14T08:23:02.693Z,14.20
2022-10-14T08:24:02.874Z,14.20
2022-10-14T08:25:02.730Z,14.20
2022-10-14T08:26:02.767Z,14.20
2022-10-14T08:27:02.740Z,14.20
2022-10-14T08:28:02.780Z,14.20
2022-10-14T08:30:05.992Z,14.20
2022-10-14T08:31:02.752Z,14.20
2022-10-14T08:32:02.656Z,14.20
2022-10-14T08:33:03.696Z,14.20
2022-10-14T08:34:08.610Z,14.20
2022-10-14T08:35:08.651Z,14.30
2022-10-14T08:36:07.708Z,14.30
2022-10-14T08:37:03.582Z,14.30
2022-10-14T08:38:08.581Z,14.30
2022-10-14T08:41:03.549Z,14.30
2022-10-14T08:42:02.629Z,14.30
2022-10-14T08:43:02.728Z,14.30
2022-10-14T08:44:02.785Z,14.30
2022-10-14T08:45:02.798Z,14.40
2022-10-14T08:46:02.810Z,14.40
2022-10-14T08:47:02.810Z,14.40
2022-10-14T08:48:02.848Z,14.40
2022-10-14T08:49:02.849Z,14.50
2022-10-14T08:50:02.809Z,14.50
2022-10-14T08:51:02.818Z,14.50
2022-10-14T08:52:02.871Z,14.60
2022-10-14T08:53:02.806Z,14.60
2022-10-14T08:54:02.804Z,14.70
2022-10-14T08:55:02.912Z,14.70
2022-10-14T08:56:02.994Z,14.80
2022-10-14T08:57:03.124Z,14.80
2022-10-14T08:58:04.054Z,14.90
2022-10-14T08:59:03.274Z,15.00
2022-10-14T09:00:03.345Z,15.00
2022-10-14T09:01:09.818Z,15.10
2022-10-14T09:02:03.420Z,15.10
2022-10-14T09:03:03.448Z,15.20
2022-10-14T09:04:08.526Z,15.20
2022-10-14T09:05:03.388Z,15.20
2022-10-14T09:06:03.478Z,15.20
2022-10-14T09:07:03.560Z,15.30
2022-10-14T09:08:03.573Z,15.30
2022-10-14T09:09:03.667Z,15.30
2022-10-14T09:10:03.643Z,15.30
2022-10-14T09:11:02.635Z,15.30
2022-10-14T09:12:02.767Z,15.30
2022-10-14T09:13:02.722Z,15.30
2022-10-14T09:14:02.771Z,15.30
2022-10-14T09:15:02.869Z,15.30
2022-10-14T09:16:02.933Z,15.30
2022-10-14T09:17:03.058Z,15.30
2022-10-14T09:19:03.130Z,15.30
2022-10-14T09:20:03.021Z,15.30
2022-10-14T09:21:03.117Z,15.30
2022-10-14T09:22:08.110Z,15.30
2022-10-14T09:23:03.574Z,15.30
2022-10-14T09:24:08.669Z,15.30
2022-10-14T09:25:03.499Z,15.40
2022-10-14T09:26:02.661Z,15.30
2022-10-14T09:27:02.757Z,15.40
2022-10-14T09:28:02.810Z,15.40
2022-10-14T09:29:02.968Z,15.40
2022-10-14T09:30:07.967Z,15.40
2022-10-14T09:31:02.859Z,15.50
2022-10-14T09:32:02.849Z,15.50
2022-10-14T09:33:07.908Z,15.50
2022-10-14T09:34:02.973Z,15.50
2022-10-14T09:35:02.966Z,15.50
2022-10-14T09:36:08.000Z,15.50
2022-10-14T09:37:08.116Z,15.60
2022-10-14T09:38:02.960Z,15.60
2022-10-14T09:39:08.103Z,15.60
2022-10-14T09:40:03.129Z,15.60
2022-10-14T09:41:03.190Z,15.60
2022-10-14T09:42:03.283Z,15.60
2022-10-14T09:43:03.179Z,15.60
2022-10-14T09:44:03.224Z,15.60
2022-10-14T09:45:03.239Z,15.60
2022-10-14T09:46:03.246Z,15.60
2022-10-14T09:47:03.215Z,15.70
2022-10-14T09:48:03.236Z,15.70
2022-10-14T09:49:03.256Z,15.70
2022-10-14T09:50:08.455Z,15.70
2022-10-14T09:51:03.380Z,15.70
2022-10-14T09:52:03.399Z,15.70
2022-10-14T09:53:03.361Z,15.70
2022-10-14T09:55:03.443Z,15.70
2022-10-14T09:56:08.412Z,15.70
2022-10-14T09:57:03.394Z,15.70
2022-10-14T09:58:03.510Z,15.70
2022-10-14T09:59:08.518Z,15.70
2022-10-14T10:00:03.533Z,15.70
2022-10-14T10:01:03.517Z,15.70
2022-10-14T10:02:03.527Z,15.70
2022-10-14T10:03:03.559Z,15.80
2022-10-14T10:04:03.669Z,15.80
2022-10-14T10:05:03.553Z,15.80
2022-10-14T10:06:08.661Z,15.80
2022-10-14T10:07:03.518Z,15.80
2022-10-14T10:08:02.741Z,15.90
2022-10-14T10:09:07.738Z,15.90
2022-10-14T10:10:02.799Z,15.90
2022-10-14T10:11:05.439Z,15.90
2022-10-14T10:12:02.909Z,15.90
2022-10-14T10:13:02.913Z,16.00
2022-10-14T10:14:03.010Z,16.00
2022-10-14T10:15:02.984Z,16.00
2022-10-14T10:16:02.932Z,16.00
2022-10-14T10:17:03.000Z,16.00
2022-10-14T10:18:03.123Z,16.00
2022-10-14T10:19:03.158Z,16.00
2022-10-14T10:20:03.239Z,16.00
2022-10-14T10:21:03.236Z,16.00
2022-10-14T10:22:03.254Z,16.00
2022-10-14T10:23:03.311Z,16.10
2022-10-14T10:24:03.438Z,16.10
2022-10-14T10:25:08.538Z,16.10
2022-10-14T10:26:03.577Z,16.10
2022-10-14T10:27:03.539Z,16.10
2022-10-14T10:28:03.579Z,16.10
2022-10-14T10:29:02.786Z,16.10
2022-10-14T10:30:02.783Z,16.10
2022-10-14T10:31:02.936Z,16.10
2022-10-14T10:32:02.984Z,16.10
2022-10-14T10:33:02.847Z,16.10
2022-10-14T10:34:03.105Z,16.10
2022-10-14T10:35:03.042Z,16.20
2022-10-14T10:36:03.145Z,16.20
2022-10-14T10:37:02.618Z,16.20
2022-10-14T10:38:02.782Z,16.20
2022-10-14T10:41:02.876Z,16.20
2022-10-14T10:42:02.861Z,16.20
2022-10-14T10:43:02.822Z,16.20
2022-10-14T10:44:03.005Z,16.20
2022-10-14T10:45:02.954Z,16.30
2022-10-14T10:46:03.077Z,16.30
2022-10-14T10:47:03.058Z,16.30
2022-10-14T10:48:03.063Z,16.40
2022-10-14T10:49:02.988Z,16.40
2022-10-14T10:50:02.949Z,16.40
2022-10-14T10:51:03.069Z,16.50
2022-10-14T10:53:03.052Z,16.50
2022-10-14T10:54:08.016Z,16.50
2022-10-14T10:55:03.003Z,16.50
2022-10-14T10:56:03.028Z,16.50
2022-10-14T10:57:02.957Z,16.60
2022-10-14T10:59:03.016Z,16.60
2022-10-14T11:00:03.156Z,16.60
2022-10-14T11:01:03.263Z,16.60
2022-10-14T11:02:03.268Z,16.60
2022-10-14T11:03:03.176Z,16.70
2022-10-14T11:04:03.219Z,16.70
2022-10-14T11:05:03.223Z,16.70
2022-10-14T11:06:03.237Z,16.70
2022-10-14T11:08:03.394Z,16.70
2022-10-14T11:09:03.422Z,16.70
2022-10-14T11:10:03.479Z,16.70
2022-10-14T11:11:03.491Z,16.80
2022-10-14T11:12:03.611Z,16.80
2022-10-14T11:13:03.638Z,16.80
2022-10-14T11:14:03.574Z,16.80
2022-10-14T11:15:02.723Z,16.80
2022-10-14T11:16:02.690Z,16.80
2022-10-14T11:17:02.788Z,16.80
2022-10-14T11:18:02.828Z,16.80
2022-10-14T11:19:02.961Z,16.80
2022-10-14T11:20:03.083Z,16.80
2022-10-14T11:21:02.980Z,16.80
2022-10-14T11:22:03.000Z,16.80
2022-10-14T11:23:02.931Z,16.80
2022-10-14T11:24:02.992Z,16.80
2022-10-14T11:25:03.061Z,16.80
2022-10-14T11:26:03.028Z,16.80
2022-10-14T11:27:03.057Z,16.90
2022-10-14T11:28:02.975Z,16.90
2022-10-14T11:29:02.968Z,16.90
2022-10-14T11:30:03.044Z,16.90
2022-10-14T11:31:03.050Z,16.90
2022-10-14T11:32:03.100Z,16.90
2022-10-14T11:33:03.107Z,16.90
2022-10-14T11:34:03.045Z,16.90
2022-10-14T11:35:03.131Z,16.90
2022-10-14T11:36:03.147Z,16.90
2022-10-14T11:37:03.130Z,16.90
2022-10-14T11:38:03.224Z,16.90
2022-10-14T11:39:03.204Z,16.90
2022-10-14T11:40:03.180Z,16.90
2022-10-14T11:41:03.313Z,16.90
2022-10-14T11:42:02.817Z,16.90
2022-10-14T11:44:02.875Z,17.00
2022-10-14T11:45:02.884Z,17.00
2022-10-14T11:46:02.806Z,17.00
2022-10-14T11:47:07.907Z,17.00
2022-10-14T11:48:03.002Z,17.00
2022-10-14T11:49:02.996Z,17.00
2022-10-14T11:50:03.020Z,17.00
2022-10-14T11:51:03.035Z,17.00
2022-10-14T11:52:02.982Z,17.10
2022-10-14T11:53:03.136Z,17.10
2022-10-14T11:54:03.161Z,17.10
2022-10-14T11:55:03.257Z,17.10
2022-10-14T11:56:03.284Z,17.10
2022-10-14T11:58:03.400Z,17.10
2022-10-14T11:59:03.531Z,17.10
2022-10-14T12:00:03.525Z,17.10
2022-10-14T12:01:03.578Z,17.10
2022-10-14T12:02:02.666Z,17.10
2022-10-14T12:03:02.894Z,17.10
2022-10-14T12:04:03.001Z,17.00
2022-10-14T12:05:02.972Z,17.00
2022-10-14T12:06:02.924Z,17.00
2022-10-14T12:07:02.926Z,17.10
2022-10-14T12:08:03.030Z,17.10
2022-10-14T12:09:03.050Z,17.00
2022-10-14T12:10:02.997Z,17.00
2022-10-14T12:11:03.047Z,17.10
2022-10-14T12:12:08.169Z,17.10
2022-10-14T12:13:08.053Z,17.10
2022-10-14T12:14:03.065Z,17.10
2022-10-14T12:15:03.280Z,17.10
2022-10-14T12:16:03.209Z,17.10
2022-10-14T12:17:03.272Z,17.10
2022-10-14T12:18:03.230Z,17.10
2022-10-14T12:19:03.313Z,17.10
2022-10-14T12:20:03.341Z,17.10
2022-10-14T12:21:08.471Z,17.20
2022-10-14T12:22:03.526Z,17.20
2022-10-14T12:23:08.652Z,17.20
2022-10-14T12:24:03.591Z,17.20
2022-10-14T12:25:02.668Z,17.20
2022-10-14T12:26:02.620Z,17.20
2022-10-14T12:27:02.804Z,17.20
2022-10-14T12:28:02.883Z,17.30
2022-10-14T12:29:03.675Z,17.30
2022-10-14T12:30:02.967Z,17.30
2022-10-14T12:31:02.950Z,17.40
2022-10-14T12:32:03.065Z,17.40
2022-10-14T12:33:08.090Z,17.40
2022-10-14T12:34:03.091Z,17.50
2022-10-14T12:35:03.063Z,17.50
2022-10-14T12:36:03.018Z,17.50
2022-10-14T12:37:03.133Z,17.50
2022-10-14T12:38:03.119Z,17.60
2022-10-14T12:39:03.172Z,17.60
2022-10-14T12:40:08.235Z,17.60
2022-10-14T12:41:03.315Z,17.60
2022-10-14T12:42:03.319Z,17.70
2022-10-14T12:45:03.531Z,17.70
2022-10-14T12:46:03.546Z,17.70
2022-10-14T12:47:02.722Z,17.70
2022-10-14T12:48:02.715Z,17.70
2022-10-14T12:49:02.836Z,17.70
2022-10-14T12:50:02.885Z,17.70
2022-10-14T12:51:03.076Z,17.70
2022-10-14T12:52:02.975Z,17.60
2022-10-14T12:53:02.993Z,17.60
2022-10-14T12:54:02.993Z,17.60
2022-10-14T12:55:07.916Z,17.60
2022-10-14T12:56:03.094Z,17.60
2022-10-14T12:57:03.185Z,17.60
2022-10-14T12:58:03.118Z,17.60
2022-10-14T12:59:03.251Z,17.50
2022-10-14T13:00:03.246Z,17.50
2022-10-14T13:01:03.225Z,17.50
2022-10-14T13:02:08.332Z,17.50
2022-10-14T13:03:03.288Z,17.50
2022-10-14T13:05:03.394Z,17.40
2022-10-14T13:06:03.341Z,17.40
2022-10-14T13:07:07.579Z,17.40
2022-10-14T13:08:02.898Z,17.40
2022-10-14T13:09:02.939Z,17.40
2022-10-14T13:10:02.900Z,17.40
2022-10-14T13:11:02.906Z,17.30
2022-10-14T13:12:02.816Z,17.30
2022-10-14T13:13:02.821Z,17.30
2022-10-14T13:14:02.747Z,17.20
2022-10-14T13:15:02.796Z,17.20
2022-10-14T13:16:02.941Z,17.10